Terminal Aerodrome Forecast
Issued by NWS

Home | Current Version | Previous Version | Graphics & Text | Print | Product List | Glossary On
Versions: 1 2 3 4 5 6 7 8 9 10 11 12 13 14 15 16 17 18 19
791
FTUS43 KMPX 170123 AAA
TAFAXN
TAF AMD
KAXN 170123Z 1701/1724 07007KT 3SM RA BR SCT004 OVC008
     FM170400 03009KT 2SM -RA BR OVC005
     FM170900 34015G23KT 4SM -SHRA BR OVC004
     FM171500 33018G24KT 6SM BR VCSH OVC007
     FM171800 33018G26KT P6SM OVC015=

USA.gov is the U.S. government's official web portal to all federal, state and local government web resources and services.